createdAt,value
2023-05-06T00:00:36.515Z,16.47
2023-05-06T00:01:36.512Z,16.50
2023-05-06T00:02:36.537Z,16.51
2023-05-06T00:03:36.729Z,16.57
2023-05-06T00:04:36.579Z,16.51
2023-05-06T00:05:36.464Z,16.59
2023-05-06T00:06:36.463Z,16.51
2023-05-06T00:07:36.451Z,16.54
2023-05-06T00:08:36.440Z,16.51
2023-05-06T00:09:36.430Z,16.54
2023-05-06T00:10:36.422Z,16.59
2023-05-06T00:11:36.828Z,16.55
2023-05-06T00:12:36.433Z,16.72
2023-05-06T00:13:36.394Z,16.63
2023-05-06T00:14:36.391Z,16.63
2023-05-06T00:15:36.377Z,16.55
2023-05-06T00:16:36.388Z,16.54
2023-05-06T00:17:36.460Z,16.50
2023-05-06T00:18:36.369Z,16.51
2023-05-06T00:19:36.342Z,16.54
2023-05-06T00:20:36.344Z,16.45
2023-05-06T00:21:36.322Z,16.40
2023-05-06T00:22:36.323Z,16.41
2023-05-06T00:23:36.304Z,16.36
2023-05-06T00:24:36.300Z,16.37
2023-05-06T00:25:36.284Z,16.36
2023-05-06T00:26:36.292Z,16.25
2023-05-06T00:27:36.288Z,16.36
2023-05-06T00:28:36.269Z,16.30
2023-05-06T00:29:36.252Z,16.22
2023-05-06T00:30:36.255Z,16.42
2023-05-06T00:31:36.269Z,16.45
2023-05-06T00:32:36.292Z,16.41
2023-05-06T00:33:36.217Z,16.44
2023-05-06T00:34:36.218Z,16.41
2023-05-06T00:35:36.202Z,16.36
2023-05-06T00:36:36.193Z,16.45
2023-05-06T00:37:36.181Z,16.44
2023-05-06T00:38:36.177Z,16.41
2023-05-06T00:39:36.162Z,16.50
2023-05-06T00:40:36.158Z,16.47
2023-05-06T00:41:36.147Z,16.42
2023-05-06T00:42:36.153Z,16.40
2023-05-06T00:43:36.221Z,16.41
2023-05-06T00:44:36.122Z,16.44
2023-05-06T00:45:36.149Z,16.41
2023-05-06T00:46:36.104Z,16.36
2023-05-06T00:47:36.139Z,16.44
2023-05-06T00:48:36.086Z,16.54
2023-05-06T00:49:36.093Z,16.51
2023-05-06T00:50:36.079Z,16.48
2023-05-06T00:51:36.057Z,16.48
2023-05-06T00:52:36.060Z,16.47
2023-05-06T00:53:36.040Z,16.45
2023-05-06T00:54:36.030Z,16.40
2023-05-06T00:55:36.030Z,16.37
2023-05-06T00:56:36.012Z,16.34
2023-05-06T00:57:36.005Z,16.33
2023-05-06T00:58:35.996Z,16.44
2023-05-06T00:59:36.136Z,16.41
2023-05-06T01:00:36.005Z,16.33
2023-05-06T01:01:36.015Z,16.36
2023-05-06T01:02:46.248Z,16.40
2023-05-06T01:03:36.070Z,16.36
2023-05-06T01:04:35.971Z,16.36
2023-05-06T01:05:35.932Z,16.48
2023-05-06T01:06:35.920Z,16.44
2023-05-06T01:07:35.931Z,16.54
2023-05-06T01:08:35.905Z,16.52
2023-05-06T01:09:35.900Z,16.48
2023-05-06T01:10:35.895Z,16.51
2023-05-06T01:11:35.879Z,16.54
2023-05-06T01:12:35.874Z,16.52
2023-05-06T01:13:35.863Z,16.45
2023-05-06T01:14:35.852Z,16.45
2023-05-06T01:15:35.864Z,16.29
2023-05-06T01:16:35.927Z,16.25
2023-05-06T01:17:35.852Z,16.27
2023-05-06T01:18:35.816Z,16.22
2023-05-06T01:19:35.808Z,16.33
2023-05-06T01:20:35.796Z,16.22
2023-05-06T01:21:35.790Z,16.18
2023-05-06T01:22:35.787Z,16.14
2023-05-06T01:23:35.775Z,16.16
2023-05-06T01:24:35.773Z,16.14
2023-05-06T01:25:35.755Z,16.13
2023-05-06T01:26:35.747Z,16.11
2023-05-06T01:27:35.788Z,16.11
2023-05-06T01:28:35.736Z,16.08
2023-05-06T01:29:35.720Z,16.25
2023-05-06T01:30:35.703Z,16.16
2023-05-06T01:31:35.800Z,16.10
2023-05-06T01:32:35.698Z,16.10
2023-05-06T01:33:35.780Z,16.16
2023-05-06T01:34:35.717Z,16.11
2023-05-06T01:35:35.671Z,16.10
2023-05-06T01:36:35.649Z,16.17
2023-05-06T01:37:35.652Z,16.11
2023-05-06T01:38:35.646Z,16.17
2023-05-06T01:39:35.625Z,16.14
2023-05-06T01:40:35.616Z,16.18
2023-05-06T01:41:35.606Z,16.17
2023-05-06T01:42:35.606Z,16.08
2023-05-06T01:43:35.586Z,16.17
2023-05-06T01:44:35.581Z,16.13
2023-05-06T01:45:35.581Z,16.14
2023-05-06T01:46:35.682Z,16.17
2023-05-06T01:47:35.621Z,16.27
2023-05-06T01:48:35.547Z,16.33
2023-05-06T01:49:35.544Z,16.33
2023-05-06T01:50:35.524Z,16.34
2023-05-06T01:51:35.518Z,16.44
2023-05-06T01:52:35.503Z,16.42
2023-05-06T01:53:35.500Z,16.37
2023-05-06T01:54:35.489Z,16.44
2023-05-06T01:55:35.492Z,16.41
2023-05-06T01:56:35.466Z,16.32
2023-05-06T01:57:35.464Z,16.27
2023-05-06T01:58:35.462Z,16.27
2023-05-06T01:59:35.452Z,16.36
2023-05-06T02:00:35.433Z,16.30
2023-05-06T02:01:35.476Z,16.34
2023-05-06T02:02:35.489Z,16.41
2023-05-06T02:03:35.602Z,16.34
2023-05-06T02:04:35.391Z,16.40
2023-05-06T02:05:35.386Z,16.33
2023-05-06T02:06:35.377Z,16.40
2023-05-06T02:07:35.370Z,16.29
2023-05-06T02:08:35.373Z,16.40
2023-05-06T02:09:35.350Z,16.37
2023-05-06T02:10:35.340Z,16.27
2023-05-06T02:11:35.332Z,16.26
2023-05-06T02:12:35.342Z,16.23
2023-05-06T02:13:35.321Z,16.27
2023-05-06T02:14:35.303Z,16.29
2023-05-06T02:15:35.299Z,16.30
2023-05-06T02:16:35.352Z,16.27
2023-05-06T02:17:35.321Z,16.36
2023-05-06T02:18:35.268Z,16.45
2023-05-06T02:19:35.359Z,16.50
2023-05-06T02:20:35.246Z,16.42
2023-05-06T02:21:35.272Z,16.32
2023-05-06T02:22:35.226Z,16.26
2023-05-06T02:23:35.232Z,16.23
2023-05-06T02:24:35.213Z,16.10
2023-05-06T02:25:35.205Z,16.10
2023-05-06T02:26:35.193Z,15.99
2023-05-06T02:27:35.187Z,15.92
2023-05-06T02:28:35.174Z,16.03
2023-05-06T02:29:35.166Z,15.92
2023-05-06T02:30:35.158Z,15.88
2023-05-06T02:31:35.203Z,15.88
2023-05-06T02:32:35.178Z,15.84
2023-05-06T02:33:35.132Z,15.84
2023-05-06T02:34:35.118Z,15.91
2023-05-06T02:35:35.136Z,15.76
2023-05-06T02:36:35.099Z,15.76
2023-05-06T02:37:35.100Z,15.77
2023-05-06T02:38:35.081Z,15.76
2023-05-06T02:39:35.076Z,15.88
2023-05-06T02:40:35.073Z,15.86
2023-05-06T02:41:35.063Z,15.76
2023-05-06T02:42:35.075Z,15.77
2023-05-06T02:43:35.044Z,15.67
2023-05-06T02:44:35.042Z,15.67
2023-05-06T02:45:35.040Z,15.68
2023-05-06T02:46:35.004Z,15.60
2023-05-06T02:47:35.028Z,15.55
2023-05-06T02:48:34.985Z,15.55
2023-05-06T02:49:34.981Z,15.46
2023-05-06T02:50:34.972Z,15.49
2023-05-06T02:51:34.986Z,15.51
2023-05-06T02:52:34.958Z,15.38
2023-05-06T02:53:34.942Z,15.40
2023-05-06T02:54:34.929Z,15.40
2023-05-06T02:55:34.971Z,15.37
2023-05-06T02:56:34.910Z,15.48
2023-05-06T02:57:34.904Z,15.41
2023-05-06T02:58:34.890Z,15.37
2023-05-06T02:59:34.885Z,15.38
2023-05-06T03:00:34.876Z,15.37
2023-05-06T03:01:34.884Z,15.46
2023-05-06T03:02:34.953Z,15.49
2023-05-06T03:03:34.905Z,15.48
2023-05-06T03:04:34.886Z,15.58
2023-05-06T03:05:34.834Z,15.64
2023-05-06T03:06:34.816Z,15.60
2023-05-06T03:07:34.899Z,15.60
2023-05-06T03:08:34.790Z,15.56
2023-05-06T03:09:34.789Z,15.62
2023-05-06T03:10:34.785Z,15.58
2023-05-06T03:11:34.770Z,15.59
2023-05-06T03:12:34.842Z,15.66
2023-05-06T03:13:34.752Z,15.67
2023-05-06T03:14:34.760Z,15.66
2023-05-06T03:15:34.731Z,15.56
2023-05-06T03:16:34.777Z,15.60
2023-05-06T03:17:34.725Z,15.56
2023-05-06T03:18:34.700Z,15.59
2023-05-06T03:19:34.716Z,15.59
2023-05-06T03:20:34.679Z,15.52
2023-05-06T03:21:34.710Z,15.49
2023-05-06T03:22:34.671Z,15.48
2023-05-06T03:23:34.846Z,15.37
2023-05-06T03:24:34.650Z,15.52
2023-05-06T03:25:34.645Z,15.55
2023-05-06T03:26:34.624Z,15.56
2023-05-06T03:27:34.631Z,15.49
2023-05-06T03:28:34.603Z,15.56
2023-05-06T03:29:34.601Z,15.55
2023-05-06T03:30:34.594Z,15.56
2023-05-06T03:31:34.609Z,15.55
2023-05-06T03:32:34.600Z,15.48
2023-05-06T03:33:34.557Z,15.53
2023-05-06T03:34:34.546Z,15.53
2023-05-06T03:35:34.543Z,15.48
2023-05-06T03:36:34.536Z,15.49
2023-05-06T03:37:34.520Z,15.51
2023-05-06T03:38:34.512Z,15.44
2023-05-06T03:39:34.530Z,15.44
2023-05-06T03:40:34.491Z,15.43
2023-05-06T03:41:34.496Z,15.53
2023-05-06T03:42:34.502Z,15.48
2023-05-06T03:43:34.464Z,15.51
2023-05-06T03:44:34.449Z,15.59
2023-05-06T03:45:34.457Z,15.62
2023-05-06T03:46:34.495Z,15.48
2023-05-06T03:47:34.446Z,15.66
2023-05-06T03:48:34.413Z,15.68
2023-05-06T03:49:34.403Z,15.67
2023-05-06T03:50:34.392Z,15.64
2023-05-06T03:51:34.384Z,15.77
2023-05-06T03:52:34.380Z,15.89
2023-05-06T03:53:34.366Z,15.81
2023-05-06T03:54:34.353Z,15.81
2023-05-06T03:55:34.507Z,15.88
2023-05-06T03:56:34.331Z,16.01
2023-05-06T03:57:34.324Z,15.92
2023-05-06T03:58:34.311Z,15.88
2023-05-06T03:59:34.306Z,15.91
2023-05-06T04:00:34.297Z,15.92
2023-05-06T04:01:34.283Z,15.88
2023-05-06T04:02:34.465Z,15.84
2023-05-06T04:03:34.384Z,15.84
2023-05-06T04:04:34.253Z,15.67
2023-05-06T04:05:34.249Z,15.70
2023-05-06T04:06:34.239Z,15.68
2023-05-06T04:07:34.232Z,15.62
2023-05-06T04:08:34.217Z,15.62
2023-05-06T04:09:34.204Z,15.58
2023-05-06T04:10:34.195Z,15.53
2023-05-06T04:11:34.356Z,15.59
2023-05-06T04:12:34.232Z,15.53
2023-05-06T04:13:34.167Z,15.49
2023-05-06T04:14:34.155Z,15.55
2023-05-06T04:15:34.145Z,15.49
2023-05-06T04:16:34.191Z,15.51
2023-05-06T04:17:34.180Z,15.56
2023-05-06T04:18:34.118Z,15.56
2023-05-06T04:19:34.118Z,15.48
2023-05-06T04:20:34.093Z,15.48
2023-05-06T04:21:34.088Z,15.51
2023-05-06T04:22:34.077Z,15.49
2023-05-06T04:23:34.069Z,15.44
2023-05-06T04:24:34.059Z,15.49
2023-05-06T04:25:34.047Z,15.40
2023-05-06T04:26:34.032Z,15.51
2023-05-06T04:27:34.121Z,15.38
2023-05-06T04:28:34.023Z,15.34
2023-05-06T04:29:34.015Z,15.34
2023-05-06T04:30:34.002Z,15.35
2023-05-06T04:31:34.035Z,15.33
2023-05-06T04:32:34.072Z,15.34
2023-05-06T04:33:33.972Z,15.28
2023-05-06T04:34:33.959Z,15.25
2023-05-06T04:35:33.952Z,15.31
2023-05-06T04:36:33.948Z,15.33
2023-05-06T04:37:33.942Z,15.37
2023-05-06T04:38:33.926Z,15.25
2023-05-06T04:39:33.910Z,15.27
2023-05-06T04:40:33.900Z,15.25
2023-05-06T04:41:33.891Z,15.34
2023-05-06T04:42:33.889Z,15.37
2023-05-06T04:43:34.024Z,15.35
2023-05-06T04:44:33.859Z,15.40
2023-05-06T04:45:33.878Z,15.35
2023-05-06T04:46:33.840Z,15.48
2023-05-06T04:47:33.856Z,15.51
2023-05-06T04:48:33.821Z,15.56
2023-05-06T04:49:33.816Z,15.49
2023-05-06T04:50:33.806Z,15.48
2023-05-06T04:51:33.803Z,15.62
2023-05-06T04:52:33.777Z,15.52
2023-05-06T04:53:33.776Z,15.67
2023-05-06T04:54:33.765Z,15.74
2023-05-06T04:55:33.757Z,15.74
2023-05-06T04:56:33.745Z,15.89
2023-05-06T04:57:33.753Z,15.88
2023-05-06T04:58:33.740Z,15.88
2023-05-06T04:59:33.818Z,15.92
2023-05-06T05:00:33.703Z,15.96
2023-05-06T05:01:33.729Z,16.03
2023-05-06T05:02:33.784Z,16.27
2023-05-06T05:03:33.735Z,16.54
2023-05-06T05:04:33.665Z,16.81
2023-05-06T05:05:33.657Z,16.98
2023-05-06T05:06:33.646Z,17.09
2023-05-06T05:07:33.642Z,17.07
2023-05-06T05:08:33.635Z,17.07
2023-05-06T05:09:33.621Z,16.96
2023-05-06T05:10:33.615Z,16.90
2023-05-06T05:11:33.635Z,16.77
2023-05-06T05:12:33.604Z,16.77
2023-05-06T05:13:33.582Z,16.73
2023-05-06T05:14:33.572Z,16.70
2023-05-06T05:15:33.667Z,16.59
2023-05-06T05:16:33.635Z,16.80
2023-05-06T05:17:33.592Z,16.81
2023-05-06T05:18:33.537Z,16.82
2023-05-06T05:19:33.532Z,17.02
2023-05-06T05:20:33.519Z,17.03
2023-05-06T05:21:33.586Z,17.07
2023-05-06T05:22:33.506Z,17.17
2023-05-06T05:23:33.513Z,17.28
2023-05-06T05:24:33.492Z,17.21
2023-05-06T05:25:33.486Z,17.27
2023-05-06T05:26:33.466Z,17.27
2023-05-06T05:27:33.453Z,17.39
2023-05-06T05:28:33.452Z,17.27
2023-05-06T05:29:33.434Z,17.32
2023-05-06T05:30:33.440Z,17.33
2023-05-06T05:31:33.509Z,17.46
2023-05-06T05:32:33.453Z,17.39
2023-05-06T05:33:33.473Z,17.47
2023-05-06T05:34:33.396Z,17.47
2023-05-06T05:35:33.383Z,17.70
2023-05-06T05:36:33.385Z,17.63
2023-05-06T05:37:33.364Z,17.65
2023-05-06T05:38:33.365Z,17.63
2023-05-06T05:39:33.348Z,17.60
2023-05-06T05:40:33.340Z,17.66
2023-05-06T05:41:33.341Z,17.70
2023-05-06T05:42:33.325Z,17.80
2023-05-06T05:43:33.316Z,17.71
2023-05-06T05:44:33.311Z,17.68
2023-05-06T05:45:33.297Z,17.74
2023-05-06T05:46:33.352Z,17.58
2023-05-06T05:47:33.448Z,17.45
2023-05-06T05:48:33.343Z,17.58
2023-05-06T05:49:33.263Z,17.51
2023-05-06T05:50:33.257Z,17.43
2023-05-06T05:51:33.248Z,17.53
2023-05-06T05:52:33.442Z,17.68
2023-05-06T05:53:33.227Z,17.76
2023-05-06T05:54:33.224Z,17.89
2023-05-06T05:55:33.211Z,17.95
2023-05-06T05:56:33.200Z,18.02
2023-05-06T05:57:33.189Z,17.96
2023-05-06T05:58:33.184Z,17.99
2023-05-06T05:59:33.179Z,18.11
2023-05-06T06:00:33.169Z,17.94
2023-05-06T06:01:33.189Z,17.98
2023-05-06T06:02:33.259Z,17.91
2023-05-06T06:03:33.422Z,18.02
2023-05-06T06:04:33.192Z,18.13
2023-05-06T06:05:33.127Z,18.29
2023-05-06T06:06:33.118Z,18.38
2023-05-06T06:07:33.111Z,18.51
2023-05-06T06:08:33.116Z,18.47
2023-05-06T06:09:33.091Z,18.56
2023-05-06T06:10:33.088Z,18.54
2023-05-06T06:11:33.087Z,18.50
2023-05-06T06:12:33.146Z,18.62
2023-05-06T06:13:33.096Z,18.60
2023-05-06T06:14:33.059Z,18.59
2023-05-06T06:15:33.049Z,18.57
2023-05-06T06:16:33.111Z,18.62
2023-05-06T06:17:33.071Z,18.54
2023-05-06T06:18:33.027Z,18.46
2023-05-06T06:19:33.101Z,18.50
2023-05-06T06:20:33.011Z,18.66
2023-05-06T06:21:32.999Z,18.64
2023-05-06T06:22:33.019Z,18.74
2023-05-06T06:23:33.190Z,18.72
2023-05-06T06:24:32.974Z,18.72
2023-05-06T06:25:32.980Z,18.83
2023-05-06T06:26:32.959Z,18.90
2023-05-06T06:27:32.964Z,18.90
2023-05-06T06:28:32.945Z,18.87
2023-05-06T06:29:32.933Z,18.89
2023-05-06T06:30:32.930Z,18.94
2023-05-06T06:31:32.938Z,19.01
2023-05-06T06:32:32.934Z,18.72
2023-05-06T06:33:32.909Z,18.91
2023-05-06T06:34:32.920Z,18.91
2023-05-06T06:35:32.911Z,18.90
2023-05-06T06:36:32.886Z,18.84
2023-05-06T06:37:32.876Z,18.86
2023-05-06T06:38:32.880Z,18.76
2023-05-06T06:39:32.860Z,18.90
2023-05-06T06:40:32.855Z,18.87
2023-05-06T06:41:32.842Z,18.99
2023-05-06T06:42:32.920Z,19.05
2023-05-06T06:43:32.833Z,19.16
2023-05-06T06:44:32.836Z,19.10
2023-05-06T06:45:32.855Z,19.10
2023-05-06T06:46:32.810Z,19.23
2023-05-06T06:47:32.826Z,19.34
2023-05-06T06:48:32.796Z,19.30
2023-05-06T06:49:32.787Z,19.16
2023-05-06T06:50:32.786Z,18.84
2023-05-06T06:51:32.870Z,18.75
2023-05-06T06:52:32.778Z,18.54
2023-05-06T06:53:32.757Z,18.51
2023-05-06T06:54:32.751Z,18.71
2023-05-06T06:55:32.745Z,18.93
2023-05-06T06:56:32.758Z,18.91
2023-05-06T06:57:32.727Z,18.91
2023-05-06T06:58:32.724Z,19.01
2023-05-06T06:59:32.718Z,19.09
2023-05-06T07:00:32.715Z,19.16
2023-05-06T07:01:32.769Z,19.23
2023-05-06T07:02:32.719Z,19.28
2023-05-06T07:03:32.686Z,19.42
2023-05-06T07:04:32.692Z,19.61
2023-05-06T07:05:32.669Z,19.68
2023-05-06T07:06:32.665Z,19.76
2023-05-06T07:07:32.818Z,19.86
2023-05-06T07:08:32.658Z,19.94
2023-05-06T07:09:34.356Z,19.94
2023-05-06T07:10:32.637Z,19.98
2023-05-06T07:11:32.636Z,20.02
2023-05-06T07:12:32.654Z,20.08
2023-05-06T07:13:32.612Z,20.12
2023-05-06T07:14:32.614Z,20.22
2023-05-06T07:15:32.600Z,20.20
2023-05-06T07:16:32.684Z,20.22
2023-05-06T07:17:32.622Z,20.30
2023-05-06T07:18:32.585Z,20.34
2023-05-06T07:19:32.572Z,20.16
2023-05-06T07:20:32.572Z,20.12
2023-05-06T07:21:32.561Z,20.26
2023-05-06T07:22:32.556Z,20.48
2023-05-06T07:23:32.723Z,20.53
2023-05-06T07:24:32.545Z,20.60
2023-05-06T07:25:32.539Z,20.66
2023-05-06T07:26:32.533Z,20.73
2023-05-06T07:27:32.520Z,20.76
2023-05-06T07:28:32.516Z,20.83
2023-05-06T07:29:32.508Z,20.91
2023-05-06T07:30:32.512Z,20.88
2023-05-06T07:31:32.655Z,20.97
2023-05-06T07:32:32.518Z,21.01
2023-05-06T07:33:32.484Z,21.16
2023-05-06T07:34:32.482Z,21.21
2023-05-06T07:35:32.505Z,21.33
2023-05-06T07:36:32.476Z,21.30
2023-05-06T07:37:32.490Z,21.40
2023-05-06T07:38:32.459Z,21.56
2023-05-06T07:39:32.678Z,21.70
2023-05-06T07:40:32.453Z,21.75
2023-05-06T07:41:32.438Z,21.74
2023-05-06T07:42:32.452Z,21.79
2023-05-06T07:43:32.441Z,21.86
2023-05-06T07:44:32.433Z,21.94
2023-05-06T07:45:32.420Z,21.83
2023-05-06T07:46:32.528Z,21.86
2023-05-06T07:47:32.519Z,21.75
2023-05-06T07:48:32.472Z,21.59
2023-05-06T07:49:32.394Z,21.55
2023-05-06T07:50:32.399Z,21.45
2023-05-06T07:51:32.383Z,21.40
2023-05-06T07:52:32.388Z,21.34
2023-05-06T07:53:32.370Z,21.31
2023-05-06T07:54:32.378Z,21.42
2023-05-06T07:55:33.903Z,21.53
2023-05-06T07:56:32.361Z,21.51
2023-05-06T07:57:32.355Z,21.56
2023-05-06T07:58:32.350Z,21.56
2023-05-06T07:59:32.342Z,21.56
2023-05-06T08:00:32.340Z,21.70
2023-05-06T08:01:32.330Z,21.64
2023-05-06T08:02:32.433Z,21.64
2023-05-06T08:03:32.518Z,21.63
2023-05-06T08:04:32.354Z,21.70
2023-05-06T08:05:32.310Z,21.68
2023-05-06T08:06:32.312Z,21.68
2023-05-06T08:07:32.298Z,21.85
2023-05-06T08:08:32.297Z,21.99
2023-05-06T08:09:32.334Z,22.01
2023-05-06T08:10:32.294Z,22.01
2023-05-06T08:11:32.368Z,21.93
2023-05-06T08:12:32.273Z,22.06
2023-05-06T08:13:32.267Z,22.09
2023-05-06T08:14:32.269Z,22.17
2023-05-06T08:15:32.258Z,22.27
2023-05-06T08:16:32.273Z,22.35
2023-05-06T08:17:32.285Z,22.44
2023-05-06T08:18:32.246Z,22.45
2023-05-06T08:19:32.235Z,22.48
2023-05-06T08:20:32.254Z,22.56
2023-05-06T08:21:32.242Z,22.54
2023-05-06T08:22:32.227Z,22.60
2023-05-06T08:23:32.218Z,22.60
2023-05-06T08:24:32.223Z,22.46
2023-05-06T08:25:32.210Z,22.44
2023-05-06T08:26:32.208Z,22.39
2023-05-06T08:27:32.240Z,22.41
2023-05-06T08:28:32.211Z,22.52
2023-05-06T08:29:32.189Z,22.30
2023-05-06T08:30:32.192Z,22.27
2023-05-06T08:31:32.233Z,22.21
2023-05-06T08:32:32.204Z,22.19
2023-05-06T08:33:32.177Z,22.42
2023-05-06T08:34:32.171Z,22.51
2023-05-06T08:35:32.177Z,22.46
2023-05-06T08:36:32.178Z,22.46
2023-05-06T08:37:32.177Z,22.46
2023-05-06T08:38:32.154Z,22.42
2023-05-06T08:39:32.171Z,22.48
2023-05-06T08:40:32.153Z,22.64
2023-05-06T08:41:32.138Z,22.66
2023-05-06T08:42:32.134Z,22.82
2023-05-06T08:43:32.148Z,22.89
2023-05-06T08:44:32.135Z,22.85
2023-05-06T08:45:32.148Z,22.78
2023-05-06T08:46:32.125Z,22.93
2023-05-06T08:47:32.172Z,23.03
2023-05-06T08:48:32.105Z,23.01
2023-05-06T08:49:32.117Z,22.93
2023-05-06T08:50:32.101Z,22.86
2023-05-06T08:51:32.096Z,22.79
2023-05-06T08:52:32.096Z,22.67
2023-05-06T08:53:32.081Z,22.54
2023-05-06T08:54:32.083Z,22.66
2023-05-06T08:55:32.093Z,22.64
2023-05-06T08:56:32.087Z,22.70
2023-05-06T08:57:32.064Z,22.75
2023-05-06T08:58:32.062Z,22.75
2023-05-06T08:59:32.140Z,22.82
2023-05-06T09:00:32.070Z,22.81
2023-05-06T09:01:32.094Z,22.86
2023-05-06T09:02:32.089Z,22.93
2023-05-06T09:03:32.280Z,23.12
2023-05-06T09:04:32.037Z,23.12
2023-05-06T09:05:32.032Z,23.12
2023-05-06T09:06:32.030Z,23.07
2023-05-06T09:07:32.032Z,23.09
2023-05-06T09:08:32.022Z,23.18
2023-05-06T09:09:32.023Z,23.12
2023-05-06T09:10:32.014Z,23.22
2023-05-06T09:11:32.008Z,23.25
2023-05-06T09:12:32.018Z,23.22
2023-05-06T09:13:31.997Z,23.19
2023-05-06T09:14:31.994Z,22.99
2023-05-06T09:15:32.113Z,23.01
2023-05-06T09:16:32.222Z,23.11
2023-05-06T09:17:32.062Z,23.16
2023-05-06T09:18:31.987Z,23.23
2023-05-06T09:19:31.976Z,23.35
2023-05-06T09:20:31.977Z,23.32
2023-05-06T09:21:31.970Z,23.31
2023-05-06T09:22:31.967Z,23.31
2023-05-06T09:23:31.960Z,23.37
2023-05-06T09:24:31.960Z,23.49
2023-05-06T09:25:31.956Z,23.64
2023-05-06T09:26:31.980Z,23.82
2023-05-06T09:27:31.956Z,23.90
2023-05-06T09:28:31.941Z,23.89
2023-05-06T09:29:31.941Z,24.02
2023-05-06T09:30:31.936Z,23.68
2023-05-06T09:31:32.140Z,23.41
2023-05-06T09:32:31.964Z,23.22
2023-05-06T09:33:31.927Z,23.35
2023-05-06T09:34:31.929Z,23.50
2023-05-06T09:35:31.922Z,23.67
2023-05-06T09:36:31.928Z,23.57
2023-05-06T09:37:31.915Z,23.79
2023-05-06T09:38:31.906Z,23.89
2023-05-06T09:39:31.911Z,23.92
2023-05-06T09:40:31.901Z,23.79
2023-05-06T09:41:31.901Z,23.89
2023-05-06T09:42:31.940Z,23.87
2023-05-06T09:43:31.893Z,24.02
2023-05-06T09:44:31.884Z,24.16
2023-05-06T09:45:31.890Z,24.29
2023-05-06T09:46:31.949Z,24.48
2023-05-06T09:47:31.928Z,24.74
2023-05-06T09:48:31.872Z,24.64
2023-05-06T09:49:31.885Z,24.37
2023-05-06T09:50:31.868Z,24.11
2023-05-06T09:51:31.868Z,24.21
2023-05-06T09:52:31.858Z,24.15
2023-05-06T09:53:31.858Z,24.31
2023-05-06T09:54:31.858Z,24.45
2023-05-06T09:55:31.854Z,24.52
2023-05-06T09:56:31.852Z,24.46
2023-05-06T09:57:31.847Z,24.55
2023-05-06T09:58:31.848Z,24.34
2023-05-06T09:59:31.843Z,24.31
2023-05-06T10:00:31.847Z,24.26
2023-05-06T10:01:36.690Z,24.27
2023-05-06T10:02:31.972Z,24.19
2023-05-06T10:03:32.005Z,24.18
2023-05-06T10:04:32.000Z,24.41
2023-05-06T10:05:31.935Z,24.46
2023-05-06T10:06:31.815Z,24.45
2023-05-06T10:07:31.825Z,24.42
2023-05-06T10:08:31.822Z,24.61
2023-05-06T10:09:31.812Z,24.55
2023-05-06T10:10:31.808Z,24.75
2023-05-06T10:11:31.819Z,24.92
2023-05-06T10:12:31.801Z,25.02
2023-05-06T10:13:31.802Z,25.14
2023-05-06T10:14:31.801Z,25.08
2023-05-06T10:15:31.800Z,25.08
2023-05-06T10:16:31.794Z,25.23
2023-05-06T10:17:31.885Z,25.26
2023-05-06T10:18:31.790Z,25.31
2023-05-06T10:19:31.884Z,25.30
2023-05-06T10:20:31.797Z,25.44
2023-05-06T10:21:31.784Z,25.39
2023-05-06T10:22:31.776Z,25.31
2023-05-06T10:23:31.779Z,25.39
2023-05-06T10:24:31.770Z,25.51
2023-05-06T10:25:31.771Z,25.44
2023-05-06T10:26:31.766Z,25.53
2023-05-06T10:27:31.765Z,25.51
2023-05-06T10:28:31.921Z,25.51
2023-05-06T10:29:31.759Z,25.63
2023-05-06T10:30:31.753Z,25.59
2023-05-06T10:31:31.790Z,25.66
2023-05-06T10:32:31.765Z,25.72
2023-05-06T10:33:31.747Z,25.66
2023-05-06T10:34:31.743Z,25.74
2023-05-06T10:35:31.766Z,25.72
2023-05-06T10:36:31.744Z,25.76
2023-05-06T10:37:31.737Z,25.81
2023-05-06T10:38:31.737Z,25.94
2023-05-06T10:39:31.733Z,25.83
2023-05-06T10:40:31.733Z,25.86
2023-05-06T10:41:31.749Z,25.71
2023-05-06T10:42:31.729Z,25.74
2023-05-06T10:43:31.725Z,25.71
2023-05-06T10:44:31.719Z,25.72
2023-05-06T10:45:31.755Z,25.67
2023-05-06T10:46:31.716Z,25.56
2023-05-06T10:47:31.743Z,25.23
2023-05-06T10:48:31.711Z,25.20
2023-05-06T10:49:31.714Z,25.26
2023-05-06T10:50:31.708Z,25.26
2023-05-06T10:51:31.742Z,25.22
2023-05-06T10:52:31.703Z,25.23
2023-05-06T10:53:31.702Z,25.23
2023-05-06T10:54:31.700Z,25.23
2023-05-06T10:55:31.697Z,25.22
2023-05-06T10:56:31.691Z,25.31
2023-05-06T10:57:31.692Z,25.46
2023-05-06T10:58:31.686Z,25.45
2023-05-06T10:59:31.693Z,25.53
2023-05-06T11:00:31.683Z,25.57
2023-05-06T11:01:31.711Z,25.63
2023-05-06T11:02:31.762Z,25.74
2023-05-06T11:03:31.820Z,25.64
2023-05-06T11:04:31.699Z,25.57
2023-05-06T11:05:31.674Z,25.46
2023-05-06T11:06:31.671Z,25.44
2023-05-06T11:07:31.771Z,25.44
2023-05-06T11:08:31.668Z,25.41
2023-05-06T11:09:31.669Z,25.42
2023-05-06T11:10:31.663Z,25.56
2023-05-06T11:11:31.667Z,25.46
2023-05-06T11:12:31.661Z,25.09
2023-05-06T11:13:31.697Z,25.11
2023-05-06T11:14:31.698Z,24.87
2023-05-06T11:15:31.656Z,24.71
2023-05-06T11:16:31.718Z,24.70
2023-05-06T11:17:31.702Z,24.59
2023-05-06T11:18:31.646Z,24.64
2023-05-06T11:19:31.646Z,24.55
2023-05-06T11:20:31.657Z,24.71
2023-05-06T11:21:31.646Z,24.77
2023-05-06T11:22:31.634Z,24.82
2023-05-06T11:23:31.942Z,24.93
2023-05-06T11:24:31.629Z,25.11
2023-05-06T11:25:31.632Z,25.08
2023-05-06T11:26:31.635Z,25.23
2023-05-06T11:27:31.638Z,25.30
2023-05-06T11:28:31.627Z,25.49
2023-05-06T11:29:31.620Z,25.59
2023-05-06T11:30:31.620Z,25.61
2023-05-06T11:31:31.635Z,25.72
2023-05-06T11:32:31.684Z,25.75
2023-05-06T11:33:31.617Z,25.76
2023-05-06T11:34:31.646Z,25.63
2023-05-06T11:35:31.632Z,25.63
2023-05-06T11:36:31.603Z,25.63
2023-05-06T11:37:31.640Z,25.57
2023-05-06T11:38:31.601Z,25.59
2023-05-06T11:39:33.305Z,25.60
2023-05-06T11:40:31.596Z,25.46
2023-05-06T11:41:31.594Z,25.57
2023-05-06T11:42:31.593Z,25.69
2023-05-06T11:43:31.592Z,25.74
2023-05-06T11:44:31.587Z,25.76
2023-05-06T11:45:31.611Z,25.82
2023-05-06T11:46:31.610Z,26.00
2023-05-06T11:47:31.602Z,25.98
2023-05-06T11:48:31.580Z,25.98
2023-05-06T11:49:31.625Z,25.96
2023-05-06T11:50:31.581Z,25.96
2023-05-06T11:51:31.579Z,25.97
2023-05-06T11:52:31.576Z,25.96
2023-05-06T11:53:31.581Z,26.00
2023-05-06T11:54:31.566Z,25.93
2023-05-06T11:55:31.682Z,26.04
2023-05-06T11:56:31.559Z,26.04
2023-05-06T11:57:31.562Z,26.03
2023-05-06T11:58:31.557Z,26.08
2023-05-06T11:59:31.597Z,26.11
2023-05-06T12:00:31.555Z,26.20
2023-05-06T12:01:31.554Z,26.31
2023-05-06T12:02:31.614Z,26.28
2023-05-06T12:03:31.817Z,26.35
2023-05-06T12:04:31.562Z,26.38
2023-05-06T12:05:31.552Z,26.44
2023-05-06T12:06:31.545Z,26.38
2023-05-06T12:07:31.543Z,26.51
2023-05-06T12:08:31.539Z,26.47
2023-05-06T12:09:31.548Z,26.32
2023-05-06T12:10:31.532Z,26.29
2023-05-06T12:11:31.627Z,26.27
2023-05-06T12:12:31.537Z,26.41
2023-05-06T12:13:31.542Z,26.11
2023-05-06T12:14:31.535Z,26.13
2023-05-06T12:15:31.529Z,26.28
2023-05-06T12:16:31.543Z,26.23
2023-05-06T12:17:31.553Z,26.35
2023-05-06T12:18:31.523Z,26.39
2023-05-06T12:19:31.526Z,26.56
2023-05-06T12:20:31.519Z,26.38
2023-05-06T12:21:31.521Z,26.19
2023-05-06T12:22:31.537Z,26.01
2023-05-06T12:23:31.584Z,25.66
2023-05-06T12:24:31.512Z,25.35
2023-05-06T12:25:31.513Z,25.41
2023-05-06T12:26:31.517Z,25.46
2023-05-06T12:27:31.607Z,25.39
2023-05-06T12:28:31.527Z,25.34
2023-05-06T12:29:31.514Z,25.34
2023-05-06T12:30:31.503Z,25.44
2023-05-06T12:31:31.582Z,25.38
2023-05-06T12:32:31.573Z,25.53
2023-05-06T12:33:31.500Z,25.71
2023-05-06T12:34:31.495Z,25.75
2023-05-06T12:35:31.521Z,25.83
2023-05-06T12:36:31.504Z,26.03
2023-05-06T12:37:31.493Z,25.81
2023-05-06T12:38:31.489Z,25.79
2023-05-06T12:39:31.492Z,25.71
2023-05-06T12:40:31.506Z,25.60
2023-05-06T12:41:31.492Z,25.49
2023-05-06T12:42:31.485Z,25.42
2023-05-06T12:43:31.598Z,25.34
2023-05-06T12:44:31.477Z,25.24
2023-05-06T12:45:31.535Z,25.16
2023-05-06T12:46:31.608Z,25.17
2023-05-06T12:47:31.514Z,25.17
2023-05-06T12:48:31.469Z,25.09
2023-05-06T12:49:31.468Z,25.08
2023-05-06T12:50:31.467Z,25.07
2023-05-06T12:51:31.470Z,25.14
2023-05-06T12:52:31.461Z,25.23